Time;durP1;ratioP1;P1;durP2;ratioP2;P2;SDS_P1;SDS_P2;PMS_P1;PMS_P2;Temp;Humidity;BMP_temperature;BMP_pressure;BME280_temperature;BME280_humidity;BME280_pressure;Samples;Min_cycle;Max_cycle;Signal;HPM_P1;HPM_P2
2021/07/05 00:06:00;;;;;;;7.60;4.45;;;21.80;69.60;;;;;;20769525;28;20527;-19
2021/07/05 00:16:01;;;;;;;8.07;4.03;;;21.80;69.50;;;;;;20772017;28;20033;-19
2021/07/05 00:26:01;;;;;;;4.70;3.65;;;21.70;69.50;;;;;;20762553;28;20034;-21
2021/07/05 00:36:03;;;;;;;5.15;3.00;;;21.70;69.50;;;;;;20761536;28;20065;-20
2021/07/05 00:46:03;;;;;;;8.38;4.25;;;21.70;69.50;;;;;;20723989;28;20034;-20
2021/07/05 00:56:05;;;;;;;5.43;2.90;;;21.70;69.70;;;;;;20753653;28;20041;-20
2021/07/05 01:06:06;;;;;;;7.60;4.00;;;21.70;69.80;;;;;;20767113;28;20469;-20
2021/07/05 01:16:06;;;;;;;5.13;2.50;;;21.70;69.80;;;;;;20792457;28;20068;-20
2021/07/05 01:26:07;;;;;;;7.18;3.63;;;21.70;69.70;;;;;;20776010;28;20037;-20
2021/07/05 01:36:11;;;;;;;7.15;3.95;;;21.70;69.70;;;;;;20774403;28;20034;-20
2021/07/05 01:46:12;;;;;;;6.68;3.17;;;21.70;69.60;;;;;;20779603;28;20038;-20
2021/07/05 01:56:13;;;;;;;6.88;3.22;;;21.70;69.60;;;;;;20784831;28;20497;-20
2021/07/05 02:06:13;;;;;;;5.60;3.15;;;21.70;69.50;;;;;;20756687;28;20431;-20
2021/07/05 02:16:14;;;;;;;2.92;2.10;;;21.60;69.40;;;;;;20755601;28;20084;-20
2021/07/05 02:26:15;;;;;;;8.57;2.73;;;21.70;69.30;;;;;;20748061;28;20022;-20
2021/07/05 02:36:15;;;;;;;3.67;2.33;;;21.70;69.30;;;;;;20756134;28;20029;-20
2021/07/05 02:46:16;;;;;;;3.45;2.20;;;21.70;69.20;;;;;;20769051;28;20121;-21
2021/07/05 02:56:16;;;;;;;6.72;2.38;;;21.70;69.20;;;;;;20768223;28;20038;-20
2021/07/05 03:06:17;;;;;;;9.77;3.65;;;21.70;69.20;;;;;;20774490;28;20038;-20
2021/07/05 03:16:17;;;;;;;5.30;2.80;;;21.70;69.20;;;;;;20780985;28;20489;-20
2021/07/05 03:26:18;;;;;;;3.42;2.60;;;21.70;69.10;;;;;;20776002;28;20026;-20
2021/07/05 03:36:18;;;;;;;3.90;1.90;;;21.70;69.10;;;;;;20777769;28;20088;-20
2021/07/05 03:46:19;;;;;;;5.47;3.28;;;21.70;69.10;;;;;;20768339;28;20064;-20
2021/07/05 03:56:20;;;;;;;3.80;2.58;;;21.70;69.10;;;;;;20764068;28;20030;-20
2021/07/05 04:06:20;;;;;;;5.43;2.30;;;21.70;69.00;;;;;;20754398;28;20037;-20
2021/07/05 04:16:21;;;;;;;4.32;2.58;;;21.70;68.90;;;;;;20754615;28;20030;-20
2021/07/05 04:26:21;;;;;;;2.95;2.28;;;21.70;68.90;;;;;;20771337;28;20029;-20
2021/07/05 04:36:22;;;;;;;3.70;2.07;;;21.70;68.80;;;;;;20760869;28;20038;-20
2021/07/05 04:46:24;;;;;;;3.92;2.83;;;21.70;68.80;;;;;;20778901;28;20520;-20
2021/07/05 04:56:24;;;;;;;5.45;3.00;;;21.70;68.70;;;;;;20765265;28;20034;-20
2021/07/05 05:06:25;;;;;;;8.82;2.50;;;21.70;68.70;;;;;;20772851;28;20625;-20
2021/07/05 05:16:25;;;;;;;12.60;4.77;;;21.70;68.60;;;;;;20773535;28;20531;-20
2021/07/05 05:26:26;;;;;;;14.17;5.53;;;21.70;68.60;;;;;;20750811;28;20026;-20
2021/07/05 05:36:27;;;;;;;19.05;4.40;;;21.60;68.10;;;;;;20778041;28;20076;-21
2021/07/05 05:46:29;;;;;;;10.13;4.10;;;21.50;68.30;;;;;;20785701;28;20116;-20
2021/07/05 05:56:33;;;;;;;15.43;4.00;;;21.50;67.80;;;;;;20789098;28;20573;-21
2021/07/05 06:06:37;;;;;;;5.80;2.67;;;21.50;67.70;;;;;;20775893;28;20056;-21
2021/07/05 06:16:37;;;;;;;11.75;3.10;;;21.50;67.70;;;;;;20761997;28;20506;-21
2021/07/05 06:26:38;;;;;;;7.25;1.67;;;21.50;67.50;;;;;;20755961;28;20026;-21
2021/07/05 06:36:39;;;;;;;5.75;1.83;;;21.50;67.40;;;;;;20746161;28;20025;-21
2021/07/05 06:46:39;;;;;;;7.80;2.07;;;21.50;67.20;;;;;;20753028;28;20045;-20
2021/07/05 06:56:40;;;;;;;3.73;1.57;;;21.50;67.30;;;;;;20751570;28;20034;-21
2021/07/05 07:06:41;;;;;;;4.07;1.33;;;21.60;67.50;;;;;;20747808;28;20457;-21
2021/07/05 07:16:44;;;;;;;2.63;1.83;;;21.60;67.50;;;;;;20758340;28;20157;-21
2021/07/05 07:26:46;;;;;;;5.57;1.55;;;21.60;67.90;;;;;;20765217;28;20456;-20
2021/07/05 07:36:46;;;;;;;3.72;1.40;;;21.60;67.80;;;;;;20765664;28;20496;-20
2021/07/05 07:46:47;;;;;;;4.45;1.40;;;21.70;67.40;;;;;;20752243;28;20472;-20
2021/07/05 07:56:48;;;;;;;2.03;1.13;;;21.70;67.10;;;;;;20745807;28;20488;-20
2021/07/05 08:06:48;;;;;;;6.10;1.60;;;21.70;67.00;;;;;;20744340;28;20069;-20
2021/07/05 08:16:49;;;;;;;3.47;1.80;;;21.70;66.90;;;;;;20758652;28;20040;-20
2021/07/05 08:26:49;;;;;;;5.07;2.00;;;21.70;66.70;;;;;;20752953;28;20069;-20
2021/07/05 08:36:50;;;;;;;1.58;1.05;;;21.70;66.50;;;;;;20742996;28;20097;-20
2021/07/05 08:46:53;;;;;;;1.40;0.88;;;21.80;66.50;;;;;;20743038;28;20042;-21
2021/07/05 08:56:54;;;;;;;2.10;1.30;;;21.80;66.20;;;;;;20719230;28;20516;-20
2021/07/05 09:07:06;;;;;;;1.65;1.10;;;21.80;66.20;;;;;;20741776;28;20029;-20
2021/07/05 09:17:09;;;;;;;4.35;1.30;;;21.80;66.00;;;;;;20768130;28;20044;-20
2021/07/05 09:27:33;;;;;;;4.45;1.20;;;21.80;66.30;;;;;;20783347;28;20405;-20
2021/07/05 09:37:33;;;;;;;3.22;1.23;;;21.80;66.70;;;;;;20784884;28;20075;-20
2021/07/05 09:47:34;;;;;;;1.73;1.08;;;21.70;66.80;;;;;;20863647;23;20049;-18
2021/07/05 09:57:47;;;;;;;3.85;1.27;;;21.70;67.00;;;;;;20901687;28;20564;-20
2021/07/05 10:08:19;;;;;;;1.92;1.50;;;21.70;66.90;;;;;;20924029;28;20029;-19
2021/07/05 10:18:19;;;;;;;1.85;1.17;;;21.70;66.90;;;;;;20637632;28;20038;-18
2021/07/05 10:28:20;;;;;;;4.05;1.60;;;21.70;66.80;;;;;;20657228;28;20038;-18
2021/07/05 10:38:31;;;;;;;1.88;1.00;;;21.70;66.80;;;;;;20657120;28;20559;-19
2021/07/05 10:48:32;;;;;;;3.42;1.00;;;21.70;66.70;;;;;;20722720;28;20037;-19
2021/07/05 10:58:34;;;;;;;3.23;1.20;;;21.70;66.80;;;;;;20896342;28;20032;-20
2021/07/05 11:08:43;;;;;;;2.03;1.17;;;21.70;66.90;;;;;;20880335;28;20024;-20
2021/07/05 11:18:47;;;;;;;2.45;1.30;;;21.70;66.90;;;;;;20857993;28;20041;-20
2021/07/05 11:29:07;;;;;;;1.60;0.98;;;21.70;67.00;;;;;;20864229;28;20139;-19
2021/07/05 11:39:08;;;;;;;1.42;0.80;;;21.70;67.10;;;;;;20865937;28;20037;-20
2021/07/05 11:49:20;;;;;;;2.78;0.93;;;21.70;67.30;;;;;;20876385;28;20040;-20
2021/07/05 11:59:30;;;;;;;3.35;1.20;;;21.80;67.10;;;;;;20872137;28;20038;-20
2021/07/05 12:09:32;;;;;;;5.40;0.80;;;21.80;67.20;;;;;;20894318;28;20392;-19
2021/07/05 12:19:35;;;;;;;2.88;1.20;;;21.80;67.30;;;;;;20873169;28;20025;-19
2021/07/05 12:29:41;;;;;;;2.22;1.15;;;21.80;67.30;;;;;;20872663;28;20112;-19
2021/07/05 12:40:05;;;;;;;2.10;1.35;;;21.90;67.40;;;;;;20867602;28;20476;-19
2021/07/05 12:50:06;;;;;;;2.65;1.10;;;22.00;67.80;;;;;;20893145;28;20568;-19
2021/07/05 13:00:07;;;;;;;3.47;0.98;;;22.00;68.10;;;;;;20899983;28;20464;-19
2021/07/05 13:10:09;;;;;;;3.70;1.00;;;22.00;67.70;;;;;;20897276;28;20032;-20
2021/07/05 13:20:17;;;;;;;6.75;0.98;;;22.10;68.00;;;;;;20897386;28;20033;-19
2021/07/05 13:30:24;;;;;;;4.63;1.10;;;22.10;67.80;;;;;;20911127;28;20055;-20
2021/07/05 13:40:27;;;;;;;1.93;0.77;;;22.10;67.70;;;;;;20913229;28;20063;-20
2021/07/05 13:50:43;;;;;;;5.82;1.23;;;22.10;67.70;;;;;;20927046;28;20036;-20
2021/07/05 14:00:53;;;;;;;2.85;1.05;;;22.10;67.60;;;;;;20946199;28;20108;-19
2021/07/05 14:10:55;;;;;;;2.00;1.00;;;22.10;67.80;;;;;;20914982;28;20033;-20
2021/07/05 14:20:58;;;;;;;1.00;0.80;;;22.10;67.60;;;;;;20901257;28;20057;-20
2021/07/05 14:30:59;;;;;;;6.45;1.40;;;22.10;67.60;;;;;;20908750;28;20033;-20
2021/07/05 14:41:00;;;;;;;5.95;1.25;;;22.10;67.50;;;;;;20905871;28;20033;-20
2021/07/05 14:51:00;;;;;;;1.98;1.00;;;22.10;67.40;;;;;;20923656;28;20059;-20
2021/07/05 15:01:01;;;;;;;2.83;1.30;;;22.20;67.40;;;;;;20907775;28;20032;-18
2021/07/05 15:11:02;;;;;;;2.90;1.25;;;22.20;67.20;;;;;;20906905;28;20453;-19
2021/07/05 15:21:04;;;;;;;1.85;1.10;;;22.20;67.20;;;;;;20892642;28;20025;-20
2021/07/05 15:31:05;;;;;;;4.78;1.52;;;22.20;67.10;;;;;;20901526;28;20028;-19
2021/07/05 15:41:05;;;;;;;4.32;1.10;;;22.20;67.00;;;;;;20902668;28;20399;-20
2021/07/05 15:51:06;;;;;;;2.25;0.95;;;22.20;67.00;;;;;;20894391;28;20171;-20
2021/07/05 16:01:07;;;;;;;3.05;0.90;;;22.20;66.90;;;;;;20891991;28;20111;-19
2021/07/05 16:11:08;;;;;;;2.37;1.20;;;22.20;66.90;;;;;;20866778;28;20030;-19
2021/07/05 16:21:08;;;;;;;4.25;0.93;;;22.20;66.90;;;;;;20869264;28;20140;-19
2021/07/05 16:31:09;;;;;;;2.27;0.97;;;22.20;66.80;;;;;;20869156;28;20021;-19
2021/07/05 16:41:10;;;;;;;3.05;0.90;;;22.20;66.80;;;;;;20876381;28;20542;-19
2021/07/05 16:51:20;;;;;;;1.55;0.80;;;22.20;66.70;;;;;;20881926;28;20037;-20
2021/07/05 17:01:22;;;;;;;1.48;0.93;;;22.20;66.70;;;;;;20879873;28;20480;-20
2021/07/05 17:11:23;;;;;;;2.10;1.05;;;22.20;66.90;;;;;;20880268;28;20026;-20
2021/07/05 17:21:23;;;;;;;1.63;0.87;;;22.20;66.70;;;;;;20860078;28;20056;-20
2021/07/05 17:31:24;;;;;;;1.33;0.82;;;22.20;66.90;;;;;;20873779;28;20033;-19
2021/07/05 17:41:26;;;;;;;6.13;1.67;;;22.30;67.10;;;;;;20879905;28;20147;-19
2021/07/05 17:51:27;;;;;;;7.53;1.65;;;22.20;67.70;;;;;;20860792;28;20384;-20
2021/07/05 18:01:28;;;;;;;3.88;1.25;;;22.20;67.90;;;;;;20884555;28;20021;-20
2021/07/05 18:11:28;;;;;;;5.20;1.42;;;22.20;68.10;;;;;;20872150;28;20029;-20
2021/07/05 18:21:29;;;;;;;7.40;1.60;;;22.20;68.60;;;;;;20878138;28;20506;-19
2021/07/05 18:31:29;;;;;;;11.77;1.08;;;22.20;68.70;;;;;;20907121;28;20037;-20
2021/07/05 18:41:30;;;;;;;6.40;1.92;;;22.20;68.40;;;;;;20906845;28;20044;-20
2021/07/05 18:51:31;;;;;;;5.97;1.52;;;22.20;68.40;;;;;;20908097;28;20051;-19
2021/07/05 19:01:31;;;;;;;5.43;1.67;;;22.10;68.20;;;;;;20908286;28;20055;-19
2021/07/05 19:11:33;;;;;;;6.15;1.85;;;22.10;68.10;;;;;;20856803;22;21263;-19
2021/07/05 19:21:33;;;;;;;5.10;1.35;;;22.10;68.20;;;;;;20742618;28;20022;-20
2021/07/05 19:31:36;;;;;;;9.60;1.90;;;22.10;68.20;;;;;;20746679;28;20034;-20
2021/07/05 19:41:37;;;;;;;5.38;1.83;;;22.00;68.20;;;;;;20737452;28;20034;-20
2021/07/05 19:51:38;;;;;;;7.90;2.88;;;22.10;68.70;;;;;;20743040;28;20029;-23
2021/07/05 20:01:39;;;;;;;2.72;1.25;;;22.10;69.10;;;;;;20749648;28;20022;-21
2021/07/05 20:11:41;;;;;;;6.93;1.75;;;22.00;69.70;;;;;;20747742;28;20092;-20
2021/07/05 20:21:42;;;;;;;2.72;0.80;;;22.00;69.40;;;;;;20736249;28;20535;-20
2021/07/05 20:31:42;;;;;;;2.42;1.17;;;22.00;69.60;;;;;;20735386;28;20038;-20
2021/07/05 20:41:43;;;;;;;3.88;1.02;;;22.00;69.30;;;;;;20735232;28;20040;-20
2021/07/05 20:51:43;;;;;;;5.57;1.27;;;22.00;69.20;;;;;;20732349;28;20026;-21
2021/07/05 21:01:44;;;;;;;1.65;1.00;;;21.90;69.00;;;;;;20737558;28;20034;-20
2021/07/05 21:11:45;;;;;;;3.55;1.40;;;21.90;68.70;;;;;;20751191;28;20092;-20
2021/07/05 21:21:46;;;;;;;3.85;0.93;;;22.00;68.50;;;;;;20752117;28;20045;-20
2021/07/05 21:31:46;;;;;;;7.38;1.17;;;22.00;68.30;;;;;;20759994;28;20086;-20
2021/07/05 21:41:47;;;;;;;2.58;1.60;;;21.90;67.80;;;;;;20754637;28;20029;-20
2021/07/05 21:51:47;;;;;;;3.38;1.33;;;21.90;67.70;;;;;;20741774;28;20083;-20
2021/07/05 22:01:48;;;;;;;3.20;1.35;;;21.80;67.60;;;;;;20755728;28;20092;-20
2021/07/05 22:11:48;;;;;;;2.40;1.15;;;21.80;67.50;;;;;;20752247;28;20104;-20
2021/07/05 22:21:49;;;;;;;3.67;1.07;;;21.80;67.50;;;;;;20748248;28;20080;-20
2021/07/05 22:31:50;;;;;;;3.92;1.35;;;21.80;67.40;;;;;;20748301;28;20467;-20
2021/07/05 22:41:50;;;;;;;2.85;1.02;;;21.80;67.50;;;;;;20747493;28;20029;-20
2021/07/05 22:51:51;;;;;;;2.85;1.00;;;21.80;67.50;;;;;;20743654;28;20037;-20
2021/07/05 23:01:52;;;;;;;3.72;1.13;;;21.70;67.50;;;;;;20743367;28;20036;-20
2021/07/05 23:11:52;;;;;;;3.50;1.30;;;21.70;67.60;;;;;;20742647;28;20072;-20
2021/07/05 23:21:56;;;;;;;2.45;0.95;;;21.70;67.60;;;;;;20741672;28;20845;-20
2021/07/05 23:31:58;;;;;;;3.22;0.98;;;21.70;67.70;;;;;;20740121;28;20025;-20
2021/07/05 23:41:58;;;;;;;3.15;1.55;;;21.70;67.80;;;;;;20740894;28;20037;-20
2021/07/05 23:51:59;;;;;;;5.13;1.40;;;21.70;67.90;;;;;;20743172;28;20034;-20
